Latest Weather Observations for Eildon Fire Tower

IDV60801

Issued at 12:02 am EST Thursday 30 June 2016 (issued every 30 minutes, with the page automatically refreshed every 10 minutes)

About weather observations | Map of weather stations | Latest weather observations for VIC | Other Formats
Station Details ID: 088164 Name: EILDON FIRE TOWER Lat: -37.21 Lon: 145.84 Height: 637.0 m
Data from the previous 72 hours. | See also: Recent months at Eildon Fire Tower
Date/Time
EST
Temp
°C
App
Temp
°C
Dew
Point
°C
Rel
Hum
%
Delta-T
°C
Wind Press
QNH
hPa
Press
MSL
hPa
Rain since
9am
mm
Dir  Spd
km/h
Gust
km/h
Spd
kts
Gust
kts
30/12:00am 6.1 2.9 4.9 92 0.5 NNE 11 20 6 11 - - 0.0
 
Date/Time
EST
Temp
°C
App
Temp
°C
Dew
Point
°C
Rel
Hum
%
Delta-T
°C
Wind Press
QNH
hPa
Press
MSL
hPa
Rain since
9am
mm
Dir  Spd
km/h
Gust
km/h
Spd
kts
Gust
kts
29/11:30pm 6.1 2.5 5.1 93 0.5 NE 13 20 7 11 - - 0.0
29/11:00pm 6.1 2.9 4.9 92 0.5 NE 11 19 6 10 - - 0.0
29/10:30pm 6.1 2.5 5.1 93 0.5 NNE 13 26 7 14 - - 0.0
29/10:00pm 6.2 1.9 5.3 94 0.4 NNE 17 24 9 13 - - 0.0
29/09:30pm 6.3 2.0 5.4 94 0.4 NNE 17 28 9 15 - - 0.0
29/09:00pm 6.4 1.8 5.4 93 0.5 NE 19 30 10 16 - - 0.0
29/08:30pm 6.3 1.7 5.4 94 0.4 NE 19 28 10 15 - - 0.0
29/08:00pm 6.2 2.3 5.3 94 0.4 NE 15 24 8 13 - - 0.0
29/07:30pm 6.3 2.0 5.4 94 0.4 NE 17 28 9 15 - - 0.0
29/07:00pm 5.9 2.6 4.7 92 0.5 NNE 11 20 6 11 - - 0.0
29/06:30pm 6.2 2.9 4.7 90 0.7 NE 11 20 6 11 - - 0.0
29/06:00pm 6.8 4.0 5.1 89 0.8 NE 9 15 5 8 - - 0.0
29/05:30pm 7.0 4.5 4.7 85 1.0 NNE 7 13 4 7 - - 0.0
29/05:00pm 7.4 4.1 4.5 82 1.3 NNE 11 20 6 11 - - 0.0
29/04:30pm 7.8 4.1 4.4 79 1.5 NNE 13 20 7 11 - - 0.0
29/04:00pm 8.8 5.2 4.8 76 1.8 NNE 13 24 7 13 - - 0.0
29/03:30pm 8.3 4.6 4.3 76 1.8 NNE 13 24 7 13 - - 0.0
29/03:00pm 8.6 5.4 5.0 78 1.7 NNE 11 19 6 10 - - 0.0
29/02:30pm 8.9 6.6 5.5 79 1.6 NNE 7 15 4 8 - - 0.0
29/02:00pm 8.3 5.6 5.4 82 1.4 N 9 15 5 8 - - 0.0
29/01:30pm 8.7 5.6 5.4 80 1.5 N 11 19 6 10 - - 0.0
29/01:00pm 9.3 7.7 8.1 92 0.6 NE 6 9 3 5 - - 0.0
29/12:30pm 7.5 5.7 7.2 98 0.1 N 6 9 3 5 - - 0.0
29/12:00pm 7.7 6.0 7.4 98 0.1 NNE 6 11 3 6 - - 0.0
29/11:30am 7.3 5.8 7.0 98 0.1 NNW 4 6 2 3 - - 0.0
29/11:00am 7.4 6.0 7.1 98 0.1 N 4 6 2 3 - - 0.0
29/10:30am 7.4 6.3 7.1 98 0.1 N 2 6 1 3 - - 0.0
29/10:00am 7.2 5.2 6.9 98 0.1 N 7 9 4 5 - - 0.0
29/09:30am 6.9 5.4 6.8 99 0.0 N 4 6 2 3 - - 0.0
29/09:00am 7.0 5.9 6.9 99 0.0 WNW 2 6 1 3 - - 0.4
29/08:30am 6.8 5.3 6.7 99 0.0 N 4 6 2 3 - - 0.4
29/08:00am 6.8 4.9 6.7 99 0.0 N 6 9 3 5 - - 0.4
29/07:30am 6.8 4.9 6.7 99 0.0 NNW 6 11 3 6 - - 0.4
29/07:00am 6.8 4.7 6.5 98 0.1 NW 7 11 4 6 - - 0.4
29/06:30am 6.8 4.3 6.5 98 0.1 NW 9 17 5 9 - - 0.4
29/06:00am 6.9 4.8 6.6 98 0.1 NW 7 11 4 6 - - 0.4
29/05:30am 6.9 3.6 6.6 98 0.1 WNW 13 17 7 9 - - 0.4
29/05:00am 6.9 4.4 6.6 98 0.1 NW 9 13 5 7 - - 0.4
29/04:30am 7.0 4.1 6.7 98 0.1 NW 11 17 6 9 - - 0.4
29/04:00am 7.0 4.1 6.7 98 0.1 NW 11 19 6 10 - - 0.4
29/03:30am 6.9 4.4 6.6 98 0.1 NNW 9 17 5 9 - - 0.2
29/03:00am 6.6 4.4 6.3 98 0.1 N 7 9 4 5 - - 0.2
29/02:30am 6.7 4.5 6.4 98 0.1 N 7 11 4 6 - - 0.2
29/02:00am 6.5 4.5 6.2 98 0.1 N 6 9 3 5 - - 0.2
29/01:30am 6.5 3.9 6.2 98 0.1 N 9 15 5 8 - - 0.2
29/01:00am 6.5 4.3 6.2 98 0.1 NNE 7 11 4 6 - - 0.2
29/12:30am 6.5 4.5 6.2 98 0.1 N 6 9 3 5 - - 0.2
29/12:00am 6.5 4.9 6.2 98 0.1 NNE 4 6 2 3 - - 0.2
 
Date/Time
EST
Temp
°C
App
Temp
°C
Dew
Point
°C
Rel
Hum
%
Delta-T
°C
Wind Press
QNH
hPa
Press
MSL
hPa
Rain since
9am
mm
Dir  Spd
km/h
Gust
km/h
Spd
kts
Gust
kts
28/11:30pm 6.5 4.5 6.2 98 0.1 N 6 9 3 5 - - 0.2
28/11:00pm 6.5 4.5 6.2 98 0.1 N 6 9 3 5 - - 0.2
28/10:30pm 6.6 4.6 6.3 98 0.1 N 6 6 3 3 - - 0.0
28/10:00pm 6.5 4.9 6.2 98 0.1 N 4 6 2 3 - - 0.0
28/09:30pm 6.5 4.3 6.2 98 0.1 N 7 11 4 6 - - 0.0
28/09:00pm 6.5 4.5 6.2 98 0.1 NNE 6 9 3 5 - - 0.0
28/08:30pm 6.5 4.5 6.2 98 0.1 N 6 13 3 7 - - 0.0
28/08:00pm 6.4 4.7 6.1 98 0.1 NNW 4 7 2 4 - - 0.0
28/07:30pm 6.4 4.2 6.1 98 0.1 NNW 7 11 4 6 - - 0.0
28/07:00pm 6.4 3.8 6.1 98 0.1 WNW 9 15 5 8 - - 0.0
28/06:30pm 6.3 4.1 6.0 98 0.1 W 7 13 4 7 - - 0.0
28/06:00pm 6.3 3.3 6.0 98 0.1 W 11 17 6 9 - - 0.0
28/05:30pm 6.3 4.1 6.0 98 0.1 W 7 17 4 9 - - 0.0
28/05:00pm 6.3 2.5 6.0 98 0.1 W 15 19 8 10 - - 0.0
28/04:30pm 6.4 3.4 6.1 98 0.1 NW 11 17 6 9 - - 0.0
28/04:00pm 6.6 4.0 6.3 98 0.1 W 9 15 5 8 - - 0.0
28/03:30pm 6.7 5.1 6.4 98 0.1 N 4 9 2 5 - - 0.0
28/03:00pm 6.5 4.5 6.2 98 0.1 NW 6 9 3 5 - - 0.0
28/02:30pm 6.4 4.7 6.1 98 0.1 WNW 4 6 2 3 - - 0.0
28/02:00pm 6.4 5.1 6.1 98 0.1 W 2 6 1 3 - - 0.0
28/01:30pm 6.7 5.1 6.4 98 0.1 W 4 7 2 4 - - 0.0
28/01:00pm 6.1 4.4 5.8 98 0.1 NNW 4 6 2 3 - - 0.0
28/12:30pm 6.0 4.3 5.7 98 0.1 N 4 6 2 3 - - 0.0
28/12:00pm 5.9 4.5 5.6 98 0.1 N 2 6 1 3 - - 0.0
28/11:30am 5.5 4.0 5.2 98 0.1 N 2 6 1 3 - - 0.0
28/11:00am 5.1 3.2 4.8 98 0.1 NNE 4 4 2 2 - - 0.0
28/10:30am 5.0 2.5 4.7 98 0.1 NNE 7 9 4 5 - - 0.0
28/10:00am 4.5 1.9 4.2 98 0.1 NNE 7 11 4 6 - - 0.0
28/09:30am 4.2 0.8 3.9 98 0.1 NNE 11 13 6 7 - - 0.0
28/09:00am 4.2 1.2 3.9 98 0.1 NNE 9 13 5 7 - - 0.8
28/08:30am 4.4 2.0 4.1 98 0.1 NNE 6 9 3 5 - - 0.8
28/08:00am 4.1 1.6 3.8 98 0.1 N 6 7 3 4 - - 0.8
28/07:30am 4.2 2.1 3.9 98 0.1 NW 4 6 2 3 - - 0.8
28/07:00am 4.2 1.5 3.9 98 0.1 W 7 9 4 5 - - 0.8
28/06:30am 4.2 1.7 3.9 98 0.1 WNW 6 9 3 5 - - 0.8
28/06:00am 4.1 1.4 3.8 98 0.1 WSW 7 9 4 5 - - 0.8
28/05:30am 4.1 1.4 3.8 98 0.1 W 7 11 4 6 - - 0.8
28/05:00am 4.0 1.9 3.7 98 0.1 NW 4 7 2 4 - - 0.8
28/04:30am 4.2 2.1 3.9 98 0.1 W 4 6 2 3 - - 0.8
28/04:00am 4.4 2.3 4.1 98 0.1 W 4 6 2 3 - - 0.8
28/03:30am 4.7 3.1 4.4 98 0.1 W 2 6 1 3 - - 0.8
28/03:00am 4.8 3.2 4.5 98 0.1 W 2 4 1 2 - - 0.8
28/02:30am 4.7 2.7 4.4 98 0.1 W 4 7 2 4 - - 0.8
28/02:00am 4.7 3.5 4.4 98 0.1 CALM 0 0 0 0 - - 0.8
28/01:30am 4.7 2.1 4.4 98 0.1 WNW 7 9 4 5 - - 0.8
28/01:00am 4.7 1.8 4.4 98 0.1 WNW 9 11 5 6 - - 0.8
28/12:30am 4.7 2.1 4.4 98 0.1 WNW 7 9 4 5 - - 0.8
28/12:00am 5.0 2.5 4.7 98 0.1 W 7 9 4 5 - - 0.8
 
Date/Time
EST
Temp
°C
App
Temp
°C
Dew
Point
°C
Rel
Hum
%
Delta-T
°C
Wind Press
QNH
hPa
Press
MSL
hPa
Rain since
9am
mm
Dir  Spd
km/h
Gust
km/h
Spd
kts
Gust
kts
27/11:30pm 5.0 2.7 4.7 98 0.1 W 6 11 3 6 - - 0.8
27/11:00pm 5.0 2.7 4.7 98 0.1 WNW 6 7 3 4 - - 0.8
27/10:30pm 5.1 2.6 4.8 98 0.1 W 7 11 4 6 - - 0.6
27/10:00pm 5.1 2.6 4.8 98 0.1 WNW 7 11 4 6 - - 0.4
27/09:30pm 5.2 3.3 4.9 98 0.1 WNW 4 7 2 4 - - 0.4
27/09:00pm 5.1 2.8 4.8 98 0.1 WNW 6 7 3 4 - - 0.4
27/08:30pm 5.1 2.8 4.8 98 0.1 WNW 6 7 3 4 - - 0.4
27/08:00pm 5.0 3.0 4.6 97 0.2 WNW 4 6 2 3 - - 0.4
27/07:30pm 5.0 2.7 4.6 97 0.2 WNW 6 6 3 3 - - 0.4
27/07:00pm 4.9 2.5 4.5 97 0.2 WNW 6 7 3 4 - - 0.4
27/06:30pm 4.9 2.4 4.5 97 0.2 W 7 9 4 5 - - 0.4
27/06:00pm 5.0 2.6 4.4 96 0.3 W 6 6 3 3 - - 0.2
27/05:30pm 5.0 3.0 4.3 95 0.3 WNW 4 7 2 4 - - 0.0
27/05:00pm 5.2 3.6 4.3 94 0.4 WSW 2 4 1 2 - - 0.0
27/04:30pm 5.2 3.2 4.2 93 0.4 W 4 6 2 3 - - 0.0
27/04:00pm 5.1 3.4 3.8 91 0.6 W 2 2 1 1 - - 0.0
27/03:30pm 5.8 3.7 4.1 89 0.8 WSW 4 6 2 3 - - 0.0
27/03:00pm 6.0 3.5 3.7 85 1.0 WNW 6 11 3 6 - - 0.0
27/02:30pm 5.8 3.6 3.6 86 1.0 NW 4 6 2 3 - - 0.0
27/02:00pm 5.8 3.1 3.6 86 1.0 W 7 13 4 7 - - 0.0
27/01:30pm 5.5 2.7 3.3 86 1.0 W 7 9 4 5 - - 0.0
27/01:00pm 5.2 2.4 3.2 87 0.9 WSW 7 13 4 7 - - 0.0
27/12:30pm 5.1 2.5 3.1 87 0.9 W 6 9 3 5 - - 0.0
27/12:00pm 4.5 3.0 3.2 91 0.6 CALM 0 0 0 0 - - 0.0
27/11:30am 4.6 2.4 3.6 93 0.4 WSW 4 6 2 3 - - 0.0
27/11:00am 4.4 1.9 3.8 96 0.3 WSW 6 7 3 4 - - 0.0
27/10:30am 3.5 0.9 3.1 97 0.2 W 6 7 3 4 - - 0.0
27/10:00am 3.4 1.1 3.0 97 0.2 W 4 7 2 4 - - 0.0
27/09:30am 2.9 0.9 2.5 97 0.2 NW 2 4 1 2 - - 0.0
27/09:00am 2.8 0.8 2.4 97 0.2 N 2 4 1 2 - - 0.0
27/08:30am 2.7 -0.1 2.3 97 0.2 NNW 6 6 3 3 - - 0.0
27/08:00am 2.5 0.1 2.1 97 0.2 NNW 4 6 2 3 - - 0.0
27/07:30am 2.4 0.3 1.8 96 0.2 W 2 2 1 1 - - 0.0
27/07:00am 2.5 0.1 1.9 96 0.2 W 4 4 2 2 - - 0.0
27/06:30am 2.4 0.3 1.8 96 0.2 W 2 4 1 2 - - 0.0
27/06:00am 2.4 -0.1 1.8 96 0.2 WNW 4 6 2 3 - - 0.0
27/05:30am 2.2 -0.7 1.6 96 0.2 NW 6 7 3 4 - - 0.0
27/05:00am 2.2 -0.9 1.6 96 0.2 WNW 7 9 4 5 - - 0.0
27/04:30am 2.2 -1.2 1.6 96 0.2 WNW 9 13 5 7 - - 0.0
27/04:00am 2.2 -1.2 1.6 96 0.2 WNW 9 13 5 7 - - 0.0
27/03:30am 2.1 -1.5 0.9 92 0.5 W 9 11 5 6 - - 0.0
27/03:00am 2.7 -0.4 -0.1 82 1.1 NW 6 9 3 5 - - 0.0
27/02:30am 2.4 -0.8 0.9 90 0.6 WNW 7 11 4 6 - - 0.0
27/02:00am 2.7 -0.6 -0.2 81 1.1 NW 7 9 4 5 - - 0.0
27/01:30am 2.6 -0.6 1.0 89 0.6 WNW 7 11 4 6 - - 0.0
27/01:00am 2.6 -0.9 1.1 90 0.6 WNW 9 11 5 6 - - 0.0
27/12:30am 2.6 -0.9 1.4 92 0.5 WNW 9 13 5 7 - - 0.0

Other Formats:

Comma delimited format used in spreadsheet applications
http://www.bom.gov.au/fwo/IDV60801/IDV60801.94881.axf

JavaScript Object Notation format (JSON) in row-major order
http://www.bom.gov.au/fwo/IDV60801/IDV60801.94881.json